Landers, California
Current Conditions -  °F | °C
As of 3:56 PM on Sunday 25 Jan 2015 (Local Time) from KNXP Reporting Station
Broken Clouds Broken Clouds  
Wind Chill: 69°   Ceiling: 20000
Heat Index: 69°   Visibility: 10mi
Dew Point: 29°   Wind: 6mph
Humidity: 22%   Direction: 10°N
Pressure: 30.16"   Gusts: NA
Location:  34.27°N, 116.39°W
Report Text: KNXP 252356Z 01005KT 10SM BKN200 21/M02 A3016 RMK AO2 SLP189 T02061017 10222 20183 55007 $
Loading
Personal Weather Stations






























Interactive Weather Map New forecast layout! Learn more

10-Day Weather Forecast

Advertisements
Track Severe Weather on mobile